createdAt,value
2022-11-20T00:01:21.901Z,55.88
2022-11-20T00:03:49.010Z,53.03
2022-11-20T00:06:18.649Z,60.08
2022-11-20T00:08:50.481Z,56.60
2022-11-20T00:11:24.729Z,49.35
2022-11-20T00:13:57.118Z,51.97
2022-11-20T00:16:25.319Z,51.38
2022-11-20T00:18:52.638Z,48.67
2022-11-20T00:21:22.325Z,48.15
2022-11-20T00:23:49.637Z,56.10
2022-11-20T00:26:19.030Z,53.75
2022-11-20T00:28:55.565Z,54.00
2022-11-20T00:31:24.478Z,50.50
2022-11-20T00:33:51.641Z,51.58
2022-11-20T00:36:20.471Z,49.25
2022-11-20T00:38:47.919Z,49.17
2022-11-20T00:41:16.558Z,48.80
2022-11-20T00:43:44.135Z,45.83
2022-11-20T00:46:14.695Z,43.85
2022-11-20T00:48:43.568Z,47.92
2022-11-20T00:51:16.035Z,51.92
2022-11-20T00:53:43.486Z,52.65
2022-11-20T00:56:18.764Z,51.05
2022-11-20T00:58:48.039Z,44.25
2022-11-20T01:01:17.562Z,45.03
2022-11-20T01:03:50.851Z,45.83
2022-11-20T01:06:29.680Z,45.63
2022-11-20T01:09:03.895Z,46.80
2022-11-20T01:11:33.278Z,49.15
2022-11-20T01:14:01.638Z,50.45
2022-11-20T01:16:32.501Z,48.88
2022-11-20T01:19:01.567Z,49.05
2022-11-20T01:21:34.977Z,48.88
2022-11-20T01:24:04.057Z,48.80
2022-11-20T01:26:33.634Z,46.13
2022-11-20T01:29:01.487Z,52.67
2022-11-20T01:31:35.602Z,47.60
2022-11-20T01:34:08.282Z,46.30
2022-11-20T01:36:37.551Z,50.55
2022-11-20T01:39:08.027Z,51.75
2022-11-20T01:41:35.779Z,42.90
2022-11-20T01:44:03.997Z,48.67
2022-11-20T01:46:33.149Z,47.95
2022-11-20T01:49:03.656Z,44.70
2022-11-20T01:51:40.840Z,45.70
2022-11-20T01:54:15.176Z,48.03
2022-11-20T01:56:49.281Z,47.60
2022-11-20T01:59:19.343Z,43.03
2022-11-20T02:01:47.330Z,46.45
2022-11-20T02:04:14.935Z,44.35
2022-11-20T02:06:49.208Z,47.67
2022-11-20T02:09:20.172Z,44.90
2022-11-20T02:11:53.332Z,44.65
2022-11-20T02:14:20.907Z,49.38
2022-11-20T02:16:49.627Z,44.08
2022-11-20T02:19:31.719Z,46.33
2022-11-20T02:22:08.842Z,41.00
2022-11-20T02:24:35.700Z,41.63
2022-11-20T02:27:10.062Z,44.00
2022-11-20T02:29:51.432Z,45.90
2022-11-20T02:32:27.883Z,44.42
2022-11-20T02:34:59.522Z,42.45
2022-11-20T02:37:33.172Z,40.85
2022-11-20T02:40:01.468Z,41.93
2022-11-20T02:42:28.496Z,45.53
2022-11-20T02:44:55.109Z,45.05
2022-11-20T02:47:21.743Z,45.50
2022-11-20T02:49:48.803Z,45.80
2022-11-20T02:52:15.403Z,47.47
2022-11-20T02:54:45.703Z,46.20
2022-11-20T02:57:13.418Z,40.03
2022-11-20T02:59:40.161Z,42.10
2022-11-20T03:02:06.799Z,41.40
2022-11-20T03:04:33.383Z,38.08
2022-11-20T03:07:03.511Z,37.95
2022-11-20T03:09:30.725Z,39.75
2022-11-20T03:11:57.284Z,42.05
2022-11-20T03:14:24.420Z,44.15
2022-11-20T03:16:51.038Z,37.25
2022-11-20T03:19:18.053Z,40.08
2022-11-20T03:21:45.124Z,41.28
2022-11-20T03:24:11.679Z,44.15
2022-11-20T03:26:39.929Z,41.05
2022-11-20T03:29:07.145Z,41.45
2022-11-20T03:31:36.755Z,42.05
2022-11-20T03:34:04.793Z,38.55
2022-11-20T03:36:33.458Z,41.78
2022-11-20T03:39:05.525Z,40.00
2022-11-20T03:41:36.437Z,40.90
2022-11-20T03:44:05.074Z,46.47
2022-11-20T03:46:32.348Z,40.22
2022-11-20T03:48:59.464Z,37.85
2022-11-20T03:51:28.789Z,43.08
2022-11-20T03:53:57.082Z,40.63
2022-11-20T03:56:26.357Z,42.90
2022-11-20T03:58:52.872Z,44.70
2022-11-20T04:01:22.317Z,42.90
2022-11-20T04:03:50.160Z,45.38
2022-11-20T04:06:22.199Z,45.28
2022-11-20T04:08:54.023Z,44.63
2022-11-20T04:11:24.188Z,46.90
2022-11-20T04:13:55.730Z,44.47
2022-11-20T04:16:24.209Z,46.97
2022-11-20T04:19:02.751Z,46.53
2022-11-20T04:21:30.497Z,49.03
2022-11-20T04:23:58.471Z,49.80
2022-11-20T04:26:26.866Z,47.35
2022-11-20T04:28:53.633Z,46.60
2022-11-20T04:31:26.620Z,47.72
2022-11-20T04:33:53.529Z,47.35
2022-11-20T04:36:25.175Z,49.95
2022-11-20T04:38:56.809Z,50.03
2022-11-20T04:41:25.721Z,48.92
2022-11-20T04:43:57.415Z,49.92
2022-11-20T04:46:24.049Z,50.70
2022-11-20T04:48:50.789Z,48.25
2022-11-20T04:51:17.519Z,49.83
2022-11-20T04:53:46.996Z,46.00
2022-11-20T04:56:14.473Z,50.40
2022-11-20T04:58:52.924Z,52.38
2022-11-20T05:01:22.707Z,53.75
2022-11-20T05:04:01.472Z,46.55
2022-11-20T05:06:41.695Z,55.55
2022-11-20T05:09:08.625Z,55.13
2022-11-20T05:11:35.490Z,54.45
2022-11-20T05:14:14.947Z,51.80
2022-11-20T05:16:54.902Z,53.00
2022-11-20T05:19:23.881Z,49.15
2022-11-20T05:21:55.473Z,51.35
2022-11-20T05:24:34.980Z,60.45
2022-11-20T05:27:11.853Z,52.78
2022-11-20T05:29:50.282Z,60.58
2022-11-20T05:32:26.953Z,51.47
2022-11-20T05:34:57.550Z,54.15
2022-11-20T05:37:37.214Z,48.83
2022-11-20T05:40:18.514Z,54.95
2022-11-20T05:42:47.239Z,51.88
2022-11-20T05:45:21.150Z,53.50
2022-11-20T05:47:48.350Z,54.58
2022-11-20T05:50:16.074Z,50.17
2022-11-20T05:52:52.842Z,53.92
2022-11-20T05:55:19.597Z,52.83
2022-11-20T05:57:47.998Z,51.83
2022-11-20T06:00:18.200Z,54.20
2022-11-20T06:02:44.938Z,57.65
2022-11-20T06:05:14.460Z,59.85
2022-11-20T06:19:43.100Z,60.63
2022-11-20T06:22:13.597Z,58.58
2022-11-20T06:24:46.843Z,60.33
2022-11-20T06:27:34.023Z,58.20
2022-11-20T06:30:04.164Z,56.55
2022-11-20T06:32:48.751Z,63.03
2022-11-20T06:35:17.053Z,58.03
2022-11-20T06:37:46.958Z,55.92
2022-11-20T06:40:14.139Z,54.17
2022-11-20T06:42:41.144Z,52.60
2022-11-20T06:45:08.821Z,55.97
2022-11-20T06:47:35.567Z,55.10
2022-11-20T06:50:02.505Z,53.38
2022-11-20T06:52:29.169Z,54.03
2022-11-20T06:54:59.182Z,56.03
2022-11-20T06:57:25.889Z,54.15
2022-11-20T06:59:52.868Z,51.85
2022-11-20T07:02:19.768Z,52.75
2022-11-20T07:04:46.439Z,50.00
2022-11-20T07:07:13.270Z,51.05
2022-11-20T07:09:46.337Z,54.00
2022-11-20T07:12:13.008Z,55.40
2022-11-20T07:14:39.816Z,50.72
2022-11-20T07:17:06.564Z,51.00
2022-11-20T07:19:33.366Z,50.67
2022-11-20T07:22:00.239Z,46.40
2022-11-20T07:24:26.966Z,46.88
2022-11-20T07:26:53.678Z,42.85
2022-11-20T07:29:20.775Z,43.58
2022-11-20T07:31:50.635Z,43.03
2022-11-20T07:34:17.428Z,46.60
2022-11-20T07:36:44.205Z,41.40
2022-11-20T07:39:11.065Z,47.38
2022-11-20T07:41:37.801Z,42.60
2022-11-20T07:44:04.700Z,41.90
2022-11-20T07:46:31.852Z,42.75
2022-11-20T07:48:58.828Z,40.47
2022-11-20T07:51:25.550Z,40.50
2022-11-20T07:54:00.082Z,43.25
2022-11-20T07:58:57.946Z,38.20
2022-11-20T08:01:27.297Z,42.05
2022-11-20T08:03:54.006Z,42.72
2022-11-20T08:06:20.701Z,40.00
2022-11-20T08:08:47.473Z,38.15
2022-11-20T08:11:14.141Z,37.95
2022-11-20T08:13:41.078Z,37.88
2022-11-20T08:16:07.848Z,35.03
2022-11-20T08:18:34.719Z,35.88
2022-11-20T08:21:05.285Z,36.75
2022-11-20T08:23:32.158Z,35.60
2022-11-20T08:25:59.204Z,32.05
2022-11-20T08:28:26.001Z,35.05
2022-11-20T08:30:58.462Z,37.03
2022-11-20T08:33:25.224Z,35.13
2022-11-20T08:35:53.325Z,35.97
2022-11-20T08:38:20.556Z,37.88
2022-11-20T08:40:47.329Z,39.45
2022-11-20T08:43:14.042Z,36.22
2022-11-20T08:45:40.975Z,34.75
2022-11-20T08:48:07.703Z,34.20
2022-11-20T08:50:35.588Z,37.88
2022-11-20T08:53:06.405Z,32.05
2022-11-20T08:55:37.456Z,34.85
2022-11-20T08:58:05.463Z,37.05
2022-11-20T09:00:32.585Z,33.85
2022-11-20T09:02:59.320Z,37.83
2022-11-20T09:05:26.263Z,30.35
2022-11-20T09:07:52.974Z,33.30
2022-11-20T09:10:24.482Z,32.72
2022-11-20T09:12:52.761Z,35.63
2022-11-20T09:15:20.559Z,33.05
2022-11-20T09:18:03.628Z,37.17
2022-11-20T09:20:39.848Z,34.00
2022-11-20T09:23:06.626Z,39.20
2022-11-20T09:25:37.972Z,32.22
2022-11-20T09:28:04.781Z,33.25
2022-11-20T09:30:31.496Z,30.77
2022-11-20T09:32:58.205Z,37.33
2022-11-20T09:35:24.872Z,33.33
2022-11-20T09:37:53.828Z,33.28
2022-11-20T09:40:34.018Z,34.28
2022-11-20T09:43:32.337Z,36.35
2022-11-20T09:46:29.564Z,35.05
2022-11-20T09:49:32.571Z,32.58
2022-11-20T09:52:27.066Z,35.47
2022-11-20T09:54:56.133Z,34.95
2022-11-20T09:57:30.180Z,36.08
2022-11-20T10:00:02.182Z,36.25
2022-11-20T10:02:47.962Z,34.60
2022-11-20T10:05:40.037Z,36.53
2022-11-20T10:08:29.915Z,34.28
2022-11-20T10:11:14.870Z,32.58
2022-11-20T10:14:00.093Z,35.00
2022-11-20T10:17:15.109Z,35.08
2022-11-20T10:20:04.198Z,32.78
2022-11-20T10:22:55.668Z,33.67
2022-11-20T10:25:41.749Z,34.80
2022-11-20T10:28:22.877Z,33.75
2022-11-20T10:30:58.718Z,34.53
2022-11-20T10:33:38.807Z,35.80
2022-11-20T10:36:25.490Z,34.97
2022-11-20T10:39:24.022Z,36.67
2022-11-20T10:41:53.670Z,38.63
2022-11-20T10:44:29.680Z,32.65
2022-11-20T10:46:56.674Z,35.85
2022-11-20T10:49:31.644Z,35.72
2022-11-20T10:52:09.475Z,38.95
2022-11-20T10:54:55.645Z,37.22
2022-11-20T10:57:45.168Z,36.65
2022-11-20T11:00:12.964Z,41.10
2022-11-20T11:02:49.617Z,34.63
2022-11-20T11:05:21.903Z,35.78
2022-11-20T11:07:55.460Z,35.10
2022-11-20T11:10:47.312Z,34.58
2022-11-20T11:13:28.532Z,37.67
2022-11-20T11:15:55.691Z,39.15
2022-11-20T11:18:28.608Z,39.28
2022-11-20T11:20:58.909Z,39.00
2022-11-20T11:23:43.937Z,34.97
2022-11-20T11:26:24.819Z,36.17
2022-11-20T11:29:19.455Z,31.60
2022-11-20T11:31:46.234Z,32.95
2022-11-20T11:34:15.651Z,33.25
2022-11-20T11:36:43.213Z,35.35
2022-11-20T11:39:20.774Z,33.80
2022-11-20T11:41:48.831Z,30.85
2022-11-20T11:44:44.822Z,27.55
2022-11-20T11:47:27.738Z,21.52
2022-11-20T11:50:09.943Z,23.48
2022-11-20T11:53:12.139Z,26.10
2022-11-20T11:56:02.910Z,31.67
2022-11-20T11:58:49.429Z,30.98
2022-11-20T12:01:44.064Z,30.13
2022-11-20T12:04:41.487Z,22.75
2022-11-20T12:10:34.595Z,27.10
2022-11-20T12:13:40.795Z,22.40
2022-11-20T12:16:13.760Z,24.27
2022-11-20T12:18:43.481Z,23.77
2022-11-20T12:21:44.297Z,23.55
2022-11-20T12:24:11.079Z,27.30
2022-11-20T12:27:11.493Z,24.33
2022-11-20T12:30:11.035Z,25.00
2022-11-20T12:33:13.137Z,25.90
2022-11-20T12:35:51.340Z,24.88
2022-11-20T12:38:39.276Z,21.92
2022-11-20T12:41:37.004Z,21.40
2022-11-20T12:44:34.605Z,20.52
2022-11-20T12:47:26.500Z,20.75
2022-11-20T12:50:32.552Z,18.52
2022-11-20T12:53:43.287Z,15.15
2022-11-20T12:56:40.127Z,20.25
2022-11-20T12:59:38.602Z,14.00
2022-11-20T13:02:31.652Z,16.77
2022-11-20T13:05:29.231Z,13.57
2022-11-20T13:07:56.491Z,14.45
2022-11-20T13:10:56.365Z,12.07
2022-11-20T13:13:47.004Z,11.85
2022-11-20T13:16:21.171Z,11.30
2022-11-20T13:18:48.106Z,12.82
2022-11-20T13:21:54.389Z,13.40
2022-11-20T13:24:24.162Z,10.25
2022-11-20T13:27:06.362Z,10.98
2022-11-20T13:29:34.650Z,12.93
2022-11-20T13:33:00.923Z,12.90
2022-11-20T13:35:42.215Z,13.85
2022-11-20T13:38:13.620Z,9.30
2022-11-20T13:40:57.815Z,12.40
2022-11-20T13:43:37.838Z,11.93
2022-11-20T13:46:07.504Z,12.90
2022-11-20T13:48:42.141Z,10.05
2022-11-20T13:51:32.007Z,11.20
2022-11-20T13:54:13.670Z,9.95
2022-11-20T13:57:17.490Z,12.70
2022-11-20T14:00:19.555Z,12.98
2022-11-20T14:03:07.384Z,12.65
2022-11-20T14:06:12.655Z,13.95
2022-11-20T14:11:15.063Z,11.18
2022-11-20T14:13:57.459Z,8.90
2022-11-20T14:16:31.424Z,13.40
2022-11-20T14:19:18.267Z,11.43
2022-11-20T14:21:49.175Z,12.15
2022-11-20T14:24:22.495Z,12.60
2022-11-20T14:26:58.729Z,12.00
2022-11-20T14:29:36.774Z,11.32
2022-11-20T14:32:04.628Z,11.30
2022-11-20T14:34:34.085Z,12.02
2022-11-20T14:37:04.119Z,10.68
2022-11-20T14:39:36.306Z,10.48
2022-11-20T14:42:11.467Z,10.40
2022-11-20T14:44:42.777Z,10.77
2022-11-20T14:47:14.255Z,9.63
2022-11-20T14:49:42.187Z,10.00
2022-11-20T14:52:19.518Z,10.35
2022-11-20T14:54:56.712Z,10.32
2022-11-20T14:57:30.934Z,11.48
2022-11-20T15:00:08.976Z,10.73
2022-11-20T15:02:39.731Z,10.43
2022-11-20T15:05:07.258Z,11.57
2022-11-20T15:07:37.208Z,11.10
2022-11-20T15:10:09.918Z,12.68
2022-11-20T15:13:11.326Z,13.00
2022-11-20T15:15:55.444Z,10.45
2022-11-20T15:18:29.653Z,10.23
2022-11-20T15:21:02.320Z,12.02
2022-11-20T15:23:33.192Z,12.77
2022-11-20T15:26:00.090Z,11.30
2022-11-20T15:28:47.162Z,10.77
2022-11-20T15:31:15.776Z,10.85
2022-11-20T15:33:43.016Z,11.68
2022-11-20T15:36:11.237Z,12.05
2022-11-20T15:39:11.998Z,11.50
2022-11-20T15:41:40.668Z,9.77
2022-11-20T15:47:07.082Z,15.88
2022-11-20T15:49:55.969Z,13.07
2022-11-20T15:52:23.185Z,12.63
2022-11-20T15:54:49.958Z,13.95
2022-11-20T15:57:16.733Z,15.50
2022-11-20T15:59:43.450Z,15.75
2022-11-20T16:02:19.098Z,15.75
2022-11-20T16:04:46.729Z,18.25
2022-11-20T16:07:14.387Z,11.23
2022-11-20T16:09:41.239Z,12.73
2022-11-20T16:12:13.187Z,16.00
2022-11-20T16:14:39.878Z,10.60
2022-11-20T16:17:06.585Z,15.88
2022-11-20T16:19:33.432Z,16.10
2022-11-20T16:22:02.956Z,14.38
2022-11-20T16:24:34.004Z,14.73
2022-11-20T16:27:00.801Z,16.05
2022-11-20T16:29:27.449Z,15.38
2022-11-20T16:31:54.232Z,13.45
2022-11-20T16:34:21.047Z,17.13
2022-11-20T16:36:47.698Z,14.27
2022-11-20T16:39:17.785Z,15.55
2022-11-20T16:41:47.502Z,12.65
2022-11-20T16:44:14.222Z,15.13
2022-11-20T16:46:41.321Z,18.38
2022-11-20T16:49:13.157Z,12.98
2022-11-20T16:51:40.148Z,14.55
2022-11-20T16:54:09.133Z,18.55
2022-11-20T16:56:36.403Z,14.57
2022-11-20T16:59:03.931Z,16.38
2022-11-20T17:01:31.358Z,15.05
2022-11-20T17:04:03.346Z,15.05
2022-11-20T17:06:32.796Z,16.45
2022-11-20T17:09:04.099Z,16.15
2022-11-20T17:11:30.851Z,16.80
2022-11-20T17:13:59.155Z,16.60
2022-11-20T17:16:26.178Z,15.88
2022-11-20T18:37:45.050Z,22.77
2022-11-20T18:40:12.661Z,19.35
2022-11-20T18:42:39.928Z,17.08
2022-11-20T18:45:07.137Z,16.95
2022-11-20T18:47:35.979Z,17.95
2022-11-20T19:04:58.449Z,17.55
2022-11-20T19:07:25.777Z,16.85
2022-11-20T19:09:53.135Z,14.73
2022-11-20T19:12:20.633Z,19.80
2022-11-20T19:14:47.841Z,16.63
2022-11-20T19:17:15.502Z,16.08
2022-11-20T19:19:42.246Z,9.80
2022-11-20T19:22:08.860Z,16.23
2022-11-20T19:24:35.751Z,13.65
2022-11-20T19:27:02.598Z,14.27
2022-11-20T19:29:34.669Z,16.35
2022-11-20T19:32:01.235Z,13.80
2022-11-20T19:34:28.463Z,15.57
2022-11-20T19:36:55.087Z,13.65
2022-11-20T19:39:21.865Z,16.00
2022-11-20T19:41:51.867Z,15.38
2022-11-20T19:44:19.209Z,14.13
2022-11-20T19:46:45.778Z,13.75
2022-11-20T19:49:14.096Z,17.77
2022-11-20T19:51:47.034Z,15.43
2022-11-20T19:54:14.289Z,12.68
2022-11-20T19:56:41.348Z,10.98
2022-11-20T19:59:09.761Z,12.25
2022-11-20T20:01:36.483Z,8.75
2022-11-20T20:04:04.441Z,10.65
2022-11-20T20:06:33.051Z,8.13
2022-11-20T20:09:01.065Z,11.40
2022-11-20T20:11:30.583Z,9.73
2022-11-20T20:13:57.401Z,8.63
2022-11-20T20:16:25.770Z,11.23
2022-11-20T20:19:00.403Z,8.82
2022-11-20T20:23:54.916Z,11.32
2022-11-20T20:26:26.460Z,10.90
2022-11-20T20:28:53.138Z,11.63
2022-11-20T20:31:23.224Z,11.32
2022-11-20T20:33:50.113Z,10.30
2022-11-20T20:36:18.709Z,9.07
2022-11-20T20:38:46.040Z,10.75
2022-11-20T20:41:13.952Z,12.18
2022-11-20T20:43:40.929Z,11.68
2022-11-20T20:46:07.735Z,9.55
2022-11-20T20:48:37.555Z,14.43
2022-11-20T20:51:04.156Z,13.07
2022-11-20T20:53:31.707Z,10.95
2022-11-20T20:56:00.002Z,12.43
2022-11-20T20:58:27.797Z,12.70
2022-11-20T21:00:55.268Z,10.52
2022-11-20T21:03:23.802Z,9.43
2022-11-20T21:05:56.040Z,11.93
2022-11-20T21:08:22.638Z,10.73
2022-11-20T21:10:51.023Z,10.55
2022-11-20T21:13:18.028Z,15.65
2022-11-20T21:15:50.167Z,14.63
2022-11-20T21:18:20.288Z,11.30
2022-11-20T21:20:47.783Z,11.18
2022-11-20T21:23:14.377Z,7.97
2022-11-20T21:25:41.253Z,9.45
2022-11-20T21:28:07.894Z,9.70
2022-11-20T21:30:36.835Z,8.75
2022-11-20T21:33:03.483Z,7.65
2022-11-20T21:35:30.027Z,8.90
2022-11-20T21:37:56.592Z,8.32
2022-11-20T21:40:25.669Z,9.93
2022-11-20T21:42:55.908Z,13.00
2022-11-20T21:45:22.823Z,8.63
2022-11-20T21:47:49.979Z,12.65
2022-11-20T21:50:17.192Z,10.48
2022-11-20T21:52:43.881Z,9.82
2022-11-20T21:55:11.188Z,8.35
2022-11-20T21:57:37.778Z,9.23
2022-11-20T22:00:05.233Z,7.03
2022-11-20T22:02:31.748Z,8.80
2022-11-20T22:04:58.369Z,7.65
2022-11-20T22:07:25.031Z,7.93
2022-11-20T22:09:51.645Z,8.30
2022-11-20T22:12:18.216Z,8.27
2022-11-20T22:14:44.754Z,7.25
2022-11-20T22:17:13.920Z,9.70
2022-11-20T22:19:40.613Z,8.25
2022-11-20T22:22:12.003Z,8.13
2022-11-20T22:24:44.954Z,7.63
2022-11-20T22:27:11.568Z,7.28
2022-11-20T22:29:38.297Z,7.68
2022-11-20T22:32:05.120Z,6.25
2022-11-20T22:34:33.166Z,7.40
2022-11-20T22:36:59.894Z,7.45
2022-11-20T22:39:26.508Z,8.90
2022-11-20T22:41:53.115Z,10.52
2022-11-20T22:44:19.671Z,7.32
2022-11-20T22:46:46.176Z,7.53
2022-11-20T22:49:12.988Z,8.13
2022-11-20T22:51:41.937Z,8.00
2022-11-20T22:54:11.363Z,16.95
2022-11-20T22:56:40.660Z,17.05
2022-11-20T22:59:10.240Z,14.57
2022-11-20T23:01:37.500Z,17.42
2022-11-20T23:04:06.481Z,16.35
2022-11-20T23:06:34.513Z,13.77
2022-11-20T23:09:05.704Z,12.88
2022-11-20T23:11:33.160Z,16.25
2022-11-20T23:14:10.960Z,14.43
2022-11-20T23:16:39.415Z,11.88
2022-11-20T23:19:08.789Z,11.20
2022-11-20T23:21:37.153Z,11.30
2022-11-20T23:24:04.898Z,9.43
2022-11-20T23:26:37.286Z,8.35
2022-11-20T23:29:04.533Z,7.20
2022-11-20T23:31:34.886Z,7.57
2022-11-20T23:34:02.991Z,6.65
2022-11-20T23:36:30.670Z,6.90
2022-11-20T23:38:57.226Z,6.28
2022-11-20T23:41:23.784Z,5.88
2022-11-20T23:43:50.352Z,6.57
2022-11-20T23:46:17.259Z,8.20
2022-11-20T23:48:45.021Z,9.85
2022-11-20T23:51:12.268Z,8.15
2022-11-20T23:53:38.818Z,6.57
2022-11-20T23:56:05.936Z,6.68
2022-11-20T23:58:35.928Z,8.48
